CFE3A / G-LCYM 7700 Squawk Report (13th of October, 2018)

Aircraft E190 Reg No. G-LCYM Age N/A
Model Emb-190 Jet engines 2 First flight 05-10
Registered 27-05-10 Rollout 05-10 Delivered 27-05-10
Construction No. 19000351 Line No. N/A Series 100LR
ADSHEX 406279 Airline name BA CityFlyer Owner British Airways
Airfield based London-City Airport~Gtr London~G First tracked 2011-04-01 15:36:02

Flight history for G-LCYM

Route Flight No Date Playback
Rotterdam The Hague (RTM) - City (LCY) BA4456 2018-11-14 15:26:00
City (LCY) - Rotterdam The Hague (RTM) BA4455 2018-11-14 14:48:00
Linate (LIN) - City (LCY) BA7302 2018-11-14 13:17:00
City (LCY) - Linate (LIN) BA7301 2018-11-14 08:13:00
Edinburgh (EDI) - City (LCY) BA8719 2018-11-14 06:57:00
City (LCY) - Edinburgh (EDI) BA8708 2018-11-13 18:51:00
Glasgow (GLA) - City (LCY) BA8727 2018-11-13 18:06:00
City (LCY) - Glasgow (GLA) BA8726 2018-11-13 14:55:00
Edinburgh (EDI) - City (LCY) BA8715 2018-11-13 14:08:00
City (LCY) - Edinburgh (EDI) BA8704 2018-11-13 09:58:00
Zurich (ZRH) - City (LCY) BA8760 2018-11-13 09:12:00
City (LCY) - Zurich (ZRH) BA8769 2018-11-12 19:47:00
Linate (LIN) - City (LCY) BA7304 2018-11-12 18:36:00
City (LCY) - Linate (LIN) BA7303 2018-11-12 11:18:00
Edinburgh (EDI) - City (LCY) BA8705 2018-11-12 10:01:00
City (LCY) - Edinburgh (EDI) BA8708 2018-11-11 20:18:00
Glasgow (GLA) - City (LCY) BA8729 2018-11-11 19:39:00
City (LCY) - Glasgow (GLA) BA2214 2018-11-09 21:26:00
Edinburgh (EDI) - City (LCY) BA8709 2018-11-09 20:48:00
City (LCY) - Edinburgh (EDI) BA8706 2018-11-09 17:42:00
Time Lat Lon Altitude Heading Speed Vertical Rate
2018-10-13 14:35:26 GMT 55.491711 -3.910532 5,175 313 336 -1280
2018-10-13 14:35:26 GMT 55.491711 -3.910532 8,000 313 336 -1280
2018-10-13 14:35:21 GMT 55.480816 -3.867788 8,200 313 336 -1280
2018-10-13 14:35:08 GMT 55.480816 -3.867788 8,450 313 336 -1280
2018-10-13 14:35:02 GMT 55.476582 -3.852339 8,575 313 336 -1280
2018-10-13 14:34:54 GMT 55.470016 -3.836031 8,600 315 344 -1472
2018-10-13 14:34:43 GMT 55.466900 -3.813801 8,725 321 376 -2112
2018-10-13 14:34:28 GMT 55.448185 -3.778095 8,875 327 378 -2368
2018-10-13 14:34:21 GMT 55.437801 -3.761902 9,100 327 378 -2368
2018-10-13 14:34:09 GMT 55.423698 -3.740262 9,525 330 388 -2112
2018-10-13 14:34:01 GMT 55.413780 -3.729276 9,950 330 388 -2112
2018-10-13 14:33:50 GMT 55.397209 -3.712380 10,450 332 387 -2160
2018-10-13 14:33:39 GMT 55.375515 -3.689825 10,800 332 387 -2160
2018-10-13 14:33:28 GMT 55.361782 -3.675176 11,200 332 387 -2160
2018-10-13 14:33:20 GMT 55.349213 -3.661693 11,575 332 387 -2160
2018-10-13 14:33:09 GMT 55.330315 -3.641801 11,950 332 387 -2160
2018-10-13 14:32:57 GMT 55.311878 -3.622658 12,300 332 387 -2160
2018-10-13 14:32:49 GMT 55.278782 -3.587868 12,925 332 387 -2160
2018-10-13 14:32:35 GMT 55.278782 -3.587868 13,325 332 387 -2160
2018-10-13 14:31:31 GMT 55.183769 -3.498088 16,250 331 401 -1800
2018-10-13 14:31:14 GMT 55.156078 -3.471571 16,775 331 427 -1260
2018-10-13 14:31:01 GMT 55.134472 -3.450924 17,300 331 416 -4680
2018-10-13 14:30:49 GMT 55.114117 -3.430817 17,725 330 422 0
2018-10-13 14:30:38 GMT 55.095425 -3.412577 18,100 330 407 -1980
2018-10-13 14:30:28 GMT 55.079006 -3.396459 18,550 330 450 -2280
2018-10-13 14:30:17 GMT 55.059200 -3.376554 18,950 330 433 -3180
2018-10-13 14:30:06 GMT 55.023109 -3.340321 19,375 328 410 -2100
2018-10-13 14:29:56 GMT 55.023109 -3.340321 20,150 329 435 -1620
2018-10-13 14:29:45 GMT 55.003929 -3.320884 20,550 329 405 -1380
2018-10-13 14:29:33 GMT 54.984493 -3.301084 20,625 329 453 -4380
2018-10-13 14:29:23 GMT 54.965618 -3.282235 21,100 329 445 -4920
2018-10-13 14:29:13 GMT 54.947884 -3.263960 21,400 329 451 0
2018-10-13 14:29:03 GMT 54.929874 -3.245530 21,800 328 452 -480
2018-10-13 14:28:52 GMT 54.910069 -3.224987 22,250 329 446 -1560
2018-10-13 14:28:40 GMT 54.889240 -3.202557 22,725 328 434 -4140
2018-10-13 14:28:30 GMT 54.871487 -3.183652 22,950 327 496 1140
2018-10-13 14:28:19 GMT 54.851444 -3.161729 23,275 328 472 -9000
2018-10-13 14:28:09 GMT 54.831875 -3.140718 23,600 327 449 0
2018-10-13 14:27:59 GMT 54.814659 -3.121926 24,000 328 527 0
2018-10-13 14:27:49 GMT 54.794003 -3.100263 24,350 329 449 0
2018-10-13 14:27:38 GMT 54.772919 -3.077775 24,800 328 478 -180
2018-10-13 14:27:27 GMT 54.752586 -3.056335 25,100 329 499 -1740
2018-10-13 14:27:17 GMT 54.734009 -3.036367 25,400 329 486 -3360
2018-10-13 14:27:07 GMT 54.713367 -3.014495 25,800 329 497 0
2018-10-13 14:26:57 GMT 54.694515 -2.995628 26,100 329 497 -960
2018-10-13 14:26:46 GMT 54.672668 -2.973547 26,575 329 521 -1920
2018-10-13 14:26:36 GMT 54.652470 -2.952910 26,825 329 514 -4680
2018-10-13 14:26:24 GMT 54.606129 -2.908250 27,250 331 475 1500
2018-10-13 14:26:13 GMT 54.606129 -2.908250 27,650 326 544 -1680
2018-10-13 14:26:02 GMT 54.584221 -2.883458 27,925 331 509 -1860
2018-10-13 14:25:50 GMT 54.558411 -2.858952 28,375 333 504 -2520
2018-10-13 14:25:39 GMT 54.535652 -2.837404 28,825 331 514 -2520
2018-10-13 14:25:29 GMT 54.495190 -2.799009 29,200 330 512 -300
2018-10-13 14:25:19 GMT 54.473602 -2.778980 29,550 330 530 -1980
2018-10-13 14:25:09 GMT 54.473602 -2.778980 29,825 331 523 -2160
2018-10-13 14:24:58 GMT 54.450466 -2.757000 30,175 329 469 -2640
2018-10-13 14:24:47 GMT 54.407806 -2.719178 30,625 333 475 -960
2018-10-13 14:24:37 GMT 54.407806 -2.719178 30,925 332 503 -1560
2018-10-13 14:24:26 GMT 54.360218 -2.679410 31,350 333 514 -1920
2018-10-13 14:24:15 GMT 54.360218 -2.679410 31,675 334 523 -1980
2018-10-13 14:24:05 GMT 54.338394 -2.661405 32,350 337 462 0
2018-10-13 14:23:55 GMT 54.318180 -2.646850 32,400 334 501 -3060
2018-10-13 14:23:45 GMT 54.297157 -2.629998 32,750 335 477 -3360
2018-10-13 14:23:35 GMT 54.277088 -2.614163 33,000 334 516 -1560
2018-10-13 14:23:23 GMT 54.252373 -2.593954 33,450 332 512 -1920
2018-10-13 14:23:12 GMT 54.228298 -2.572782 33,850 336 461 -1800
2018-10-13 14:23:01 GMT 54.206001 -2.556627 34,150 336 487 -1560
2018-10-13 14:22:50 GMT 54.183285 -2.539616 34,600 329 474 -1980
2018-10-13 14:22:40 GMT 54.163223 -2.522305 34,900 332 473 -1740
2018-10-13 14:22:30 GMT 54.143841 -2.507185 35,250 336 518 -2280
2018-10-13 14:22:20 GMT 54.123322 -2.489536 35,600 337 486 -1380
2018-10-13 14:22:08 GMT 54.098293 -2.470788 35,775 334 471 -1380
2018-10-13 14:21:58 GMT 54.056965 -2.438429 35,925 335 430 -1380
2018-10-13 14:21:47 GMT 54.056965 -2.438429 36,050 334 512 -1560
2018-10-13 14:21:37 GMT 54.035538 -2.421043 36,225 335 425 -1140
2018-10-13 14:21:27 GMT 54.017498 -2.404393 36,325 338 473 60
2018-10-13 14:21:17 GMT 53.974865 -2.372860 36,475 335 450 -720
2018-10-13 14:21:05 GMT 53.974865 -2.372860 36,650 337 432 -960
2018-10-13 14:20:53 GMT 53.951107 -2.356900 36,775 331 477 -420
2018-10-13 14:20:42 GMT 53.930271 -2.340471 36,975 335 482 -720
2018-10-13 14:20:32 GMT 53.910484 -2.324949 37,100 334 487 -780
2018-10-13 14:20:22 GMT 53.890114 -2.308842 37,225 336 498 -1680
2018-10-13 14:20:11 GMT 53.866917 -2.291455 37,375 338 443 -1380
2018-10-13 14:19:59 GMT 53.844788 -2.276868 37,550 338 488 360
2018-10-13 14:19:49 GMT 53.823067 -2.261304 37,725 340 494 -660
2018-10-13 14:19:38 GMT 53.799297 -2.247292 37,875 343 494 -180
2018-10-13 14:19:28 GMT 53.777405 -2.236081 38,000 343 490 0
2018-10-13 14:19:18 GMT 53.730171 -2.211273 38,000 343 517 0
2018-10-13 14:19:07 GMT 53.730171 -2.211273 38,000 342 455 0
2018-10-13 14:18:57 GMT 53.709507 -2.199734 38,000 344 489 0
2018-10-13 14:18:47 GMT 53.687908 -2.188455 38,000 343 489 0
2018-10-13 14:18:36 GMT 53.664230 -2.176078 38,000 343 476 0
2018-10-13 14:18:26 GMT 53.619289 -2.152769 38,000 340 535 0
2018-10-13 14:18:16 GMT 53.619289 -2.152769 38,000 341 479 0
2018-10-13 14:18:06 GMT 53.598221 -2.141067 38,000 342 457 0
2018-10-13 14:17:56 GMT 53.576874 -2.128969 38,000 343 476 0
2018-10-13 14:17:45 GMT 53.553478 -2.118737 38,000 342 504 0
2018-10-13 14:17:33 GMT 53.527863 -2.104744 38,000 343 523 0
2018-10-13 14:17:22 GMT 53.502762 -2.092224 38,000 342 483 0
2018-10-13 14:17:12 GMT 53.481388 -2.081021 38,000 342 450 0
2018-10-13 14:16:59 GMT 53.455616 -2.066749 38,000 343 502 0
2018-10-13 14:16:48 GMT 53.431347 -2.054520 38,000 345 473 0
2018-10-13 14:16:38 GMT 53.386467 -2.032163 38,000 347 484 0
2018-10-13 14:16:27 GMT 53.386467 -2.032163 38,000 343 457 0
2018-10-13 14:16:16 GMT 53.363216 -2.020965 38,000 344 492 0
2018-10-13 14:16:05 GMT 53.339043 -2.009912 38,000 341 506 0
2018-10-13 14:15:55 GMT 53.319027 -1.997332 38,000 345 459 0
2018-10-13 14:15:44 GMT 53.294605 -1.986614 38,000 345 484 0
2018-10-13 14:15:34 GMT 53.272018 -1.976477 38,000 346 496 0
2018-10-13 14:15:24 GMT 53.251503 -1.968117 38,000 347 479 0
2018-10-13 14:15:14 GMT 53.228676 -1.959512 38,000 349 492 0
2018-10-13 14:15:04 GMT 53.184048 -1.947215 38,000 349 517 0
2018-10-13 14:14:54 GMT 53.184048 -1.947215 38,000 349 482 0
2018-10-13 14:14:43 GMT 53.158905 -1.939411 38,000 350 499 0
2018-10-13 14:14:33 GMT 53.136105 -1.933833 38,000 350 468 0
2018-10-13 14:14:23 GMT 53.112953 -1.927588 38,000 348 462 0
2018-10-13 14:14:11 GMT 53.086452 -1.919938 38,000 352 494 0
2018-10-13 14:14:00 GMT 53.037205 -1.906132 38,000 347 469 0
2018-10-13 14:13:49 GMT 53.013020 -1.900139 38,000 353 494 0
2018-10-13 14:13:38 GMT 53.013020 -1.900139 38,000 349 472 0
2018-10-13 14:13:28 GMT 52.989952 -1.894814 38,000 348 481 0
2018-10-13 14:13:17 GMT 52.965282 -1.886848 38,000 350 514 0
2018-10-13 14:13:07 GMT 52.941734 -1.880309 38,000 350 463 0
2018-10-13 14:12:57 GMT 52.919498 -1.874909 38,000 350 457 0
2018-10-13 14:12:47 GMT 52.896923 -1.868141 38,000 353 494 0
2018-10-13 14:12:36 GMT 52.869877 -1.864836 38,000 346 464 60
2018-10-13 14:12:23 GMT 52.843506 -1.854893 38,000 350 510 -60
2018-10-13 14:12:12 GMT 52.818310 -1.847098 38,000 351 466 -120
2018-10-13 14:12:02 GMT 52.797298 -1.841320 38,000 354 521 0
2018-10-13 14:11:51 GMT 52.749435 -1.829017 38,000 351 488 0
2018-10-13 14:11:41 GMT 52.749435 -1.829017 38,000 351 513 0
2018-10-13 14:11:31 GMT 52.704140 -1.815974 38,000 351 472 0
2018-10-13 14:11:20 GMT 52.704140 -1.815974 38,000 352 436 0
2018-10-13 14:11:10 GMT 52.681377 -1.812497 38,000 348 510 0
2018-10-13 14:10:58 GMT 52.653854 -1.803473 38,000 349 468 0
2018-10-13 14:10:47 GMT 52.629704 -1.795694 38,000 347 420 0
2018-10-13 14:10:37 GMT 52.608002 -1.791244 38,000 346 513 0
2018-10-13 14:10:27 GMT 52.585308 -1.786758 38,000 347 510 0
2018-10-13 14:10:17 GMT 52.562950 -1.781529 38,000 347 466 0
2018-10-13 14:10:07 GMT 52.542458 -1.772889 38,000 354 525 0
2018-10-13 14:09:56 GMT 52.518284 -1.767409 38,000 347 475 0
2018-10-13 14:09:46 GMT 52.495708 -1.765084 38,000 339 489 0
2018-10-13 14:09:36 GMT 52.473904 -1.756324 38,000 350 522 0
2018-10-13 14:09:26 GMT 52.451714 -1.750186 38,000 349 479 0
2018-10-13 14:09:16 GMT 52.428947 -1.743100 38,000 350 501 0
2018-10-13 14:09:05 GMT 52.404263 -1.737240 38,000 350 458 0
2018-10-13 14:08:55 GMT 52.381851 -1.731402 38,000 350 444 0
2018-10-13 14:08:43 GMT 52.355282 -1.724008 38,000 351 478 0
2018-10-13 14:08:33 GMT 52.309368 -1.712345 38,000 347 451 0
2018-10-13 14:08:22 GMT 52.309368 -1.712345 38,000 349 469 0
2018-10-13 14:08:10 GMT 52.283489 -1.703259 38,000 350 510 0
2018-10-13 14:08:00 GMT 52.260715 -1.699378 38,000 350 485 0
2018-10-13 14:07:49 GMT 52.236084 -1.689775 38,000 356 479 0
2018-10-13 14:07:39 GMT 52.215298 -1.689010 38,000 346 518 0
2018-10-13 14:07:28 GMT 52.190922 -1.681288 38,000 350 497 0
2018-10-13 14:07:18 GMT 52.168552 -1.675330 38,000 348 452 0
2018-10-13 14:07:08 GMT 52.146702 -1.669531 38,000 353 504 0
2018-10-13 14:06:58 GMT 52.125267 -1.663612 38,000 346 482 0
2018-10-13 14:06:48 GMT 52.102463 -1.658422 38,000 350 464 0
2018-10-13 14:06:38 GMT 52.081127 -1.652285 38,000 355 438 0
2018-10-13 14:06:28 GMT 52.058578 -1.646378 38,000 349 456 0
2018-10-13 14:06:17 GMT 52.033974 -1.640097 38,000 351 452 0
2018-10-13 14:06:07 GMT 52.012604 -1.634329 38,000 352 476 0
2018-10-13 14:05:57 GMT 51.990784 -1.629423 38,000 349 482 0
2018-10-13 14:05:47 GMT 51.968792 -1.624104 38,000 349 479 0
2018-10-13 14:05:37 GMT 51.946991 -1.617353 38,000 349 464 0
2018-10-13 14:05:27 GMT 51.926952 -1.612748 38,000 349 501 0
2018-10-13 14:05:16 GMT 51.901985 -1.605369 38,000 349 461 0
2018-10-13 14:05:06 GMT 51.880329 -1.598775 38,000 352 483 0
2018-10-13 14:04:54 GMT 51.853714 -1.593271 38,000 344 475 0
2018-10-13 14:04:44 GMT 51.833115 -1.587589 38,000 353 475 0
2018-10-13 14:04:34 GMT 51.810242 -1.582224 38,000 349 479 0
2018-10-13 14:04:23 GMT 51.759670 -1.567510 38,000 348 509 0
2018-10-13 14:04:11 GMT 51.759670 -1.567510 38,000 353 488 0
2018-10-13 14:03:58 GMT 51.732849 -1.561546 38,000 350 514 0
2018-10-13 14:03:46 GMT 51.705948 -1.555494 38,000 349 491 0
2018-10-13 14:03:35 GMT 51.682343 -1.549322 38,000 348 479 0
2018-10-13 14:03:25 GMT 51.639187 -1.537666 38,000 351 474 0
2018-10-13 14:03:15 GMT 51.639187 -1.537666 38,000 350 531 0
2018-10-13 14:03:04 GMT 51.612652 -1.530380 38,000 351 427 0
2018-10-13 14:02:53 GMT 51.590748 -1.525324 38,000 350 497 0
2018-10-13 14:02:43 GMT 51.569836 -1.518250 38,000 350 480 0
2018-10-13 14:02:32 GMT 51.546040 -1.513541 38,000 351 485 0
2018-10-13 14:02:22 GMT 51.523090 -1.508567 38,000 349 482 0
2018-10-13 14:02:11 GMT 51.474300 -1.494602 38,000 344 559 0
2018-10-13 14:02:00 GMT 51.474300 -1.494602 38,000 358 467 0
2018-10-13 14:01:49 GMT 51.452915 -1.493178 38,000 347 487 0
2018-10-13 14:01:38 GMT 51.406857 -1.481360 38,000 356 436 0
2018-10-13 14:01:28 GMT 51.406857 -1.481360 38,000 346 498 0
2018-10-13 14:01:17 GMT 51.359707 -1.466462 38,000 353 465 0
2018-10-13 14:01:06 GMT 51.359707 -1.466462 38,000 350 485 0
2018-10-13 14:00:54 GMT 51.333797 -1.460177 38,000 351 530 0
2018-10-13 14:00:43 GMT 51.307690 -1.454003 38,000 347 420 0
2018-10-13 14:00:32 GMT 51.286804 -1.446649 38,000 354 526 0
2018-10-13 14:00:22 GMT 51.238464 -1.436754 38,000 351 459 0
2018-10-13 14:00:11 GMT 51.238464 -1.436754 38,000 349 440 0
2018-10-13 14:00:00 GMT 51.214741 -1.429797 38,000 353 457 0
2018-10-13 13:59:48 GMT 51.189548 -1.424857 38,000 349 493 0
2018-10-13 13:59:38 GMT 51.167107 -1.418331 38,000 353 492 0
2018-10-13 13:59:28 GMT 51.144207 -1.411763 38,000 353 486 0
2018-10-13 13:59:18 GMT 51.121826 -1.407589 38,000 353 433 0
2018-10-13 13:59:08 GMT 51.102634 -1.402666 38,000 347 444 0
2018-10-13 13:58:58 GMT 51.080982 -1.397072 38,000 350 474 0
2018-10-13 13:58:47 GMT 51.035599 -1.384297 38,000 352 514 0
2018-10-13 13:58:37 GMT 51.035599 -1.384297 38,000 353 461 0
2018-10-13 13:58:27 GMT 50.991905 -1.376402 38,000 354 468 0
2018-10-13 13:58:17 GMT 50.991905 -1.376402 38,000 350 471 0
2018-10-13 13:58:07 GMT 50.969276 -1.368104 38,000 351 487 0
2018-10-13 13:57:57 GMT 50.946999 -1.362679 38,000 355 402 0
2018-10-13 13:57:47 GMT 50.928436 -1.360450 38,000 347 518 0
2018-10-13 13:57:34 GMT 50.900700 -1.353645 38,000 354 464 0
2018-10-13 13:57:23 GMT 50.877396 -1.347058 38,000 348 538 0
2018-10-13 13:57:12 GMT 50.831432 -1.336224 38,000 354 474 0
2018-10-13 13:57:02 GMT 50.831432 -1.336224 38,000 350 480 0
2018-10-13 13:56:52 GMT 50.810150 -1.330900 38,000 352 465 0
2018-10-13 13:56:42 GMT 50.765007 -1.318052 38,000 352 477 0
2018-10-13 13:56:31 GMT 50.765007 -1.318052 38,000 356 461 0
2018-10-13 13:56:21 GMT 50.743717 -1.315721 38,000 348 508 0
2018-10-13 13:56:08 GMT 50.713634 -1.305884 38,000 351 410 0
2018-10-13 13:55:56 GMT 50.687992 -1.299270 38,000 351 541 0
2018-10-13 13:55:46 GMT 50.663174 -1.293648 38,000 353 423 0
2018-10-13 13:55:36 GMT 50.643703 -1.290162 38,000 351 436 0
2018-10-13 13:55:25 GMT 50.598778 -1.279081 38,000 352 415 0
2018-10-13 13:55:14 GMT 50.570503 -1.272735 38,000 350 489 0
2018-10-13 13:55:02 GMT 50.570503 -1.272735 38,000 350 461 0
2018-10-13 13:54:51 GMT 50.546814 -1.267026 38,000 351 506 0
2018-10-13 13:54:41 GMT 50.523609 -1.261693 38,000 352 498 0
2018-10-13 13:54:31 GMT 50.500771 -1.256939 38,000 355 441 0
2018-10-13 13:54:19 GMT 50.476627 -1.255699 38,000 358 528 0
2018-10-13 13:54:09 GMT 50.452839 -1.256701 38,000 359 543 0
2018-10-13 13:53:59 GMT 50.428463 -1.256594 38,000 2 444 0
2018-10-13 13:53:47 GMT 50.376701 -1.258392 38,000 0 493 0
2018-10-13 13:53:35 GMT 50.376701 -1.258392 38,000 357 467 0
2018-10-13 13:53:24 GMT 50.348808 -1.255100 38,000 3 456 0
2018-10-13 13:53:12 GMT 50.326298 -1.259888 38,000 357 555 0
2018-10-13 13:53:01 GMT 50.298042 -1.257693 38,000 4 411 0
2018-10-13 13:52:49 GMT 50.275230 -1.260255 38,000 3 510 0
2018-10-13 13:52:38 GMT 50.249294 -1.262857 38,000 359 518 0
2018-10-13 13:52:28 GMT 50.227699 -1.261339 38,000 3 484 0
2018-10-13 13:52:17 GMT 50.203091 -1.263979 38,000 359 484 0
2018-10-13 13:52:06 GMT 50.156513 -1.263573 38,000 1 499 0
2018-10-13 13:51:56 GMT 50.156513 -1.263573 38,000 4 450 0
2018-10-13 13:51:45 GMT 50.128498 -1.260614 38,000 6 432 0
2018-10-13 13:51:34 GMT 50.106667 -1.264667 38,000 1 472 0
2018-10-13 13:51:23 GMT 50.082649 -1.265727 38,000 7 467 0
2018-10-13 13:51:13 GMT 50.059872 -1.266358 38,000 355 509 0
2018-10-13 13:51:02 GMT 50.036144 -1.267295 38,000 0 470 0
2018-10-13 13:50:51 GMT 50.011253 -1.266914 38,000 3 464 0
2018-10-13 13:50:40 GMT 49.960148 -1.267818 38,000 357 463 0
2018-10-13 13:50:28 GMT 49.960148 -1.267818 38,000 5 468 0
2018-10-13 13:50:16 GMT 49.934937 -1.270595 38,000 359 496 0
2018-10-13 13:50:06 GMT 49.911926 -1.270491 38,000 355 555 0
2018-10-13 13:49:55 GMT 49.863735 -1.272017 38,000 10 432 0
2018-10-13 13:49:44 GMT 49.863735 -1.272017 38,000 1 470 0
2018-10-13 13:49:33 GMT 49.816452 -1.272573 38,000 0 488 0
2018-10-13 13:49:23 GMT 49.816452 -1.272573 38,000 1 477 0
2018-10-13 13:49:12 GMT 49.791733 -1.271621 38,000 4 453 0
2018-10-13 13:49:02 GMT 49.770809 -1.274423 38,000 358 491 0
2018-10-13 13:48:49 GMT 49.741272 -1.273285 38,000 3 483 0
2018-10-13 13:48:39 GMT 49.719181 -1.277811 38,000 357 486 0
2018-10-13 13:48:28 GMT 49.694202 -1.275755 38,000 1 469 0
2018-10-13 13:48:16 GMT 49.642536 -1.278171 38,000 2 458 0
2018-10-13 13:48:04 GMT 49.642536 -1.278171 38,000 358 489 0
2018-10-13 13:47:51 GMT 49.592129 -1.278177 38,000 1 477 0
2018-10-13 13:47:41 GMT 49.592129 -1.278177 38,000 3 467 0
2018-10-13 13:47:29 GMT 49.566196 -1.280316 38,000 0 485 0
2018-10-13 13:47:19 GMT 49.544094 -1.280269 38,000 359 498 0
2018-10-13 13:47:07 GMT 49.516422 -1.279949 38,000 1 470 0
2018-10-13 13:46:57 GMT 49.494675 -1.281119 38,000 1 460 0
2018-10-13 13:46:45 GMT 49.469044 -1.281346 38,000 0 490 0
2018-10-13 13:46:35 GMT 49.447655 -1.282329 38,000 0 486 0
2018-10-13 13:46:25 GMT 49.425171 -1.282616 38,000 0 466 0
2018-10-13 13:46:12 GMT 49.396877 -1.283293 38,000 1 471 0
2018-10-13 13:46:02 GMT 49.375088 -1.283996 38,000 0 484 0
2018-10-13 13:45:50 GMT 49.348801 -1.284164 38,000 359 458 0
2018-10-13 13:45:40 GMT 49.326248 -1.283930 38,000 5 437 0
2018-10-13 13:45:30 GMT 49.306072 -1.286718 38,000 358 495 0
2018-10-13 13:45:19 GMT 49.281120 -1.286065 38,000 357 480 0
2018-10-13 13:45:09 GMT 49.236874 -1.287186 38,000 3 495 0
2018-10-13 13:44:59 GMT 49.236874 -1.287186 38,000 359 488 0
2018-10-13 13:44:49 GMT 49.214272 -1.286643 38,000 356 482 0
2018-10-13 13:44:35 GMT 49.183079 -1.283526 38,000 356 413 0
2018-10-13 13:44:25 GMT 49.163979 -1.281922 38,000 353 482 0
2018-10-13 13:44:15 GMT 49.141052 -1.276675 38,000 347 465 0
2018-10-13 13:44:05 GMT 49.101135 -1.265849 38,000 348 483 0
2018-10-13 13:43:55 GMT 49.101135 -1.265849 38,000 345 490 0
2018-10-13 13:43:45 GMT 49.080063 -1.257717 38,000 349 462 0
2018-10-13 13:43:34 GMT 49.055946 -1.252706 38,000 346 449 0
2018-10-13 13:43:20 GMT 49.027676 -1.241960 38,000 350 469 0
2018-10-13 13:43:08 GMT 48.977901 -1.227766 38,000 347 474 0
2018-10-13 13:42:57 GMT 48.955944 -1.221345 38,000 348 491 0
2018-10-13 13:42:45 GMT 48.955944 -1.221345 38,000 345 506 0
2018-10-13 13:42:34 GMT 48.930965 -1.211725 38,000 348 458 0
2018-10-13 13:42:24 GMT 48.911663 -1.207882 38,000 346 472 0
2018-10-13 13:42:08 GMT 48.877632 -1.195484 38,000 352 459 0
2018-10-13 13:41:58 GMT 48.856449 -1.192378 38,000 343 437 0
2018-10-13 13:41:47 GMT 48.834988 -1.181380 38,000 352 488 0
2018-10-13 13:41:35 GMT 48.808079 -1.176086 38,000 345 417 0
2018-10-13 13:41:25 GMT 48.787136 -1.170461 38,000 342 405 0
2018-10-13 13:41:11 GMT 48.761105 -1.158647 38,000 355 496 0
2018-10-13 13:40:58 GMT 48.731319 -1.154895 38,000 347 448 0
2018-10-13 13:40:45 GMT 48.704193 -1.145601 38,000 348 440 0
2018-10-13 13:40:30 GMT 48.674255 -1.136286 38,000 349 454 0
2018-10-13 13:40:20 GMT 48.624710 -1.121952 38,000 349 438 0
2018-10-13 13:40:06 GMT 48.624710 -1.121952 38,000 348 463 0
2018-10-13 13:39:55 GMT 48.601608 -1.114788 38,000 349 467 0
2018-10-13 13:39:37 GMT 48.564320 -1.103187 38,000 350 451 0
2018-10-13 13:39:25 GMT 48.519577 -1.091404 38,000 344 440 0
2018-10-13 13:39:15 GMT 48.494411 -1.085477 38,000 348 457 0
2018-10-13 13:39:04 GMT 48.494411 -1.085477 38,000 346 451 0
2018-10-13 13:38:51 GMT 48.469318 -1.074835 38,000 350 473 0
2018-10-13 13:38:41 GMT 48.446949 -1.068686 38,000 349 451 0
2018-10-13 13:38:31 GMT 48.428051 -1.062566 38,000 349 473 0
2018-10-13 13:38:20 GMT 48.403328 -1.055942 38,000 348 464 0
2018-10-13 13:38:08 GMT 48.379395 -1.048793 38,000 348 486 0
2018-10-13 13:37:58 GMT 48.359749 -1.038767 38,000 353 485 0
2018-10-13 13:37:46 GMT 48.333038 -1.034923 38,000 349 474 0
2018-10-13 13:37:35 GMT 48.310135 -1.028734 38,000 346 448 0
2018-10-13 13:37:24 GMT 48.286911 -1.021374 38,000 350 483 0
2018-10-13 13:37:13 GMT 48.263878 -1.015227 38,000 348 485 0
2018-10-13 13:37:01 GMT 48.237411 -1.007413 38,000 349 450 0
2018-10-13 13:36:49 GMT 48.213593 -1.000226 38,000 349 468 0
2018-10-13 13:36:39 GMT 48.192413 -0.994383 38,000 348 450 0
2018-10-13 13:36:26 GMT 48.164673 -0.986164 38,000 348 432 0
2018-10-13 13:36:10 GMT 48.111950 -0.970079 38,000 349 446 0
2018-10-13 13:36:00 GMT 48.111950 -0.970079 38,000 348 452 0
2018-10-13 13:35:48 GMT 48.086578 -0.963193 38,000 347 450 0
2018-10-13 13:35:37 GMT 48.064201 -0.955789 38,000 349 462 0
2018-10-13 13:35:25 GMT 48.039421 -0.948867 38,000 349 454 0
2018-10-13 13:35:14 GMT 48.015812 -0.942150 38,000 348 431 0
2018-10-13 13:35:02 GMT 47.993027 -0.934838 38,000 349 475 0
2018-10-13 13:34:49 GMT 47.965740 -0.927783 38,000 349 460 0
2018-10-13 13:34:39 GMT 47.909557 -0.911103 38,000 347 462 0
2018-10-13 13:34:22 GMT 47.909557 -0.911103 38,000 348 465 0
2018-10-13 13:34:10 GMT 47.884808 -0.903899 38,000 348 460 0
2018-10-13 13:33:58 GMT 47.859711 -0.896526 38,000 349 447 0
2018-10-13 13:33:46 GMT 47.835266 -0.890022 38,000 348 457 0
2018-10-13 13:33:35 GMT 47.811642 -0.883225 38,000 349 451 0
2018-10-13 13:33:23 GMT 47.772419 -0.871230 38,025 350 459 0
2018-10-13 13:33:10 GMT 47.747002 -0.864187 38,000 348 452 0
2018-10-13 13:32:56 GMT 47.719723 -0.857004 38,000 348 452 0
2018-10-13 13:32:48 GMT 47.703289 -0.852497 38,000 348 452 0
2018-10-13 13:32:35 GMT 47.676891 -0.845384 38,000 348 452 0
2018-10-13 13:32:30 GMT 47.666698 -0.842003 38,000 348 452 0
2018-10-13 13:32:17 GMT 47.635696 -0.834398 38,000 348 452 0
2018-10-13 13:32:06 GMT 47.615307 -0.828130 38,000 348 452 0
2018-10-13 13:31:58 GMT 47.599384 -0.822777 38,000 348 452 0
2018-10-13 13:31:45 GMT 47.568195 -0.812566 38,000 348 452 0
2018-10-13 13:31:36 GMT 47.535515 -0.801932 38,000 348 451 0
2018-10-13 13:31:27 GMT 47.535515 -0.801932 38,000 348 451 0
2018-10-13 13:31:14 GMT 47.510517 -0.793621 38,000 348 446 64
2018-10-13 13:31:06 GMT 47.494595 -0.787917 38,000 348 445 0
2018-10-13 13:30:57 GMT 47.472622 -0.780381 38,000 348 445 0
2018-10-13 13:30:44 GMT 47.447018 -0.771367 38,000 348 445 0
2018-10-13 13:30:32 GMT 47.424488 -0.764817 38,000 348 445 0
2018-10-13 13:30:23 GMT 47.406097 -0.758902 38,000 348 445 0
2018-10-13 13:30:10 GMT 47.377003 -0.749606 38,000 348 445 0
2018-10-13 13:30:03 GMT 47.362480 -0.744817 38,000 348 445 0
2018-10-13 13:29:54 GMT 47.345722 -0.739183 38,000 348 445 0
2018-10-13 13:29:40 GMT 47.317417 -0.730027 38,000 348 445 0
2018-10-13 13:29:34 GMT 47.305080 -0.725591 38,000 348 445 0
2018-10-13 13:29:21 GMT 47.278687 -0.716224 38,000 348 445 0
2018-10-13 13:29:08 GMT 47.250195 -0.706928 38,000 348 445 0
2018-10-13 13:29:02 GMT 47.240280 -0.703618 38,000 348 445 0
2018-10-13 13:28:51 GMT 47.218307 -0.695871 38,000 348 449 0
2018-10-13 13:28:37 GMT 47.190796 -0.686434 38,000 348 449 0
2018-10-13 13:28:29 GMT 47.176689 -0.681293 38,000 348 449 0
2018-10-13 13:28:21 GMT 47.159790 -0.677068 38,000 348 449 0
2018-10-13 13:28:11 GMT 47.137306 -0.669814 38,000 348 455 0
2018-10-13 13:27:59 GMT 47.112911 -0.661081 38,000 348 455 0
2018-10-13 13:27:46 GMT 47.088985 -0.652208 38,000 348 455 0
2018-10-13 13:27:32 GMT 47.058681 -0.642418 38,000 348 455 0
2018-10-13 13:27:26 GMT 47.045879 -0.638193 38,000 348 452 0
2018-10-13 13:27:19 GMT 47.032890 -0.634531 38,000 348 452 0
2018-10-13 13:27:05 GMT 47.005005 -0.625235 38,000 348 452 0
2018-10-13 13:26:59 GMT 46.990993 -0.620798 38,000 348 452 0
2018-10-13 13:26:46 GMT 46.965622 -0.612699 38,000 348 452 0
2018-10-13 13:26:34 GMT 46.943184 -0.604811 38,000 348 452 0
2018-10-13 13:26:27 GMT 46.928379 -0.600093 38,000 348 452 0
2018-10-13 13:26:16 GMT 46.903801 -0.591924 38,000 348 452 0
2018-10-13 13:26:04 GMT 46.881687 -0.585374 38,000 348 452 0
2018-10-13 13:25:52 GMT 46.855991 -0.577400 38,000 348 452 0
2018-10-13 13:25:46 GMT 46.845516 -0.574516 38,000 348 452 0
2018-10-13 13:25:36 GMT 46.826385 -0.568680 38,000 348 452 0
2018-10-13 13:25:22 GMT 46.796684 -0.558929 38,000 348 452 0
2018-10-13 13:25:10 GMT 46.770287 -0.550827 38,000 348 452 0
2018-10-13 13:25:04 GMT 46.760094 -0.547600 38,000 348 447 64
2018-10-13 13:24:51 GMT 46.735699 -0.540115 38,000 348 447 64
2018-10-13 13:24:46 GMT 46.723316 -0.535583 38,000 348 447 64
2018-10-13 13:24:32 GMT 46.696690 -0.526726 38,000 349 443 0
2018-10-13 13:24:24 GMT 46.678802 -0.520980 38,000 349 443 0
2018-10-13 13:24:08 GMT 46.648602 -0.511826 38,000
2018-10-13 13:23:59 GMT 46.616993 -0.501526 38,000
2018-10-13 13:23:52 GMT 46.616993 -0.501526 38,000

Making use of Plane Finder data

You are free to use the raw flight data, aircraft information and images provided in this report for your own purposes provided the data is correctly attributed to Plane Finder. We ask that you please credit Plane Finder and link to planefinder.net in close proximity to the content.

Optionally one of the following logos (no smaller then 150x24px) can be used and must link to planefinder.net

Embedding the Plane Finder map

You are welcome to embed the Plane Finder playback map on your website to offer visitors a more interactive experience. We suggest using the following HTML code:

<iframe src="//planefinder.net/data/report/CFE3A-G-LCYM-7700-squawk-2018-10-13/map" width="800" height="600" seamless="seamless"></iframe>

Where our data comes from

Plane Finder has a global network of data feeds and antenna radars that receive data broadcast directly from aircraft. The primary technologies used are ADS-B and MLAT. We also show feeds from the FAA and a FLARM glider feed.

Click here to find out more about the Plane Finder network.

How we collect our data